Warning: Javascript must be enabled to use all the features on this page!


Page Loading - Please Wait...

Click to hideNews Bulletins

Peak Streamflow for the Nation

USGS 10329500 MARTIN CK NR PARADISE VALLEY, NV

Humboldt County, Nevada
Hydrologic Unit Code 16040109
Latitude  41°32'05", Longitude 117°25'01" NAD27
Drainage area 175.25  square miles
Gage datum 4,648.9 feet above NAVD88
Output formats
Table
Graph
Tab-separated file
peakfq (watstore) format
Reselect output format
Water
Year
Date Gage
Height
(feet)
Stream-
flow
(cfs)
1922 1922-05-19 6.67 275
1923 1923-05-21 4.92 101
1924 1924-02-08 4.65 74.0
1925 1925-02-04 8.60 550
1926 1926-03-04 6.15 220
1927 1927-02-21 12.00 2,000
1928 1928-05-10   1651
1929 1929-05-24 5.18 82.0
1930 1930-05 5.05Bd 85.0Bd
1931 1931-03-18 5.02 106
1932 1932-03-19   4202
1933 1933-08-18 9.30 570
1934 1934-03-29   56.01
1935 1935-05-31 6.74 242
1936 1936-04-23 6.93 200
1937 1937-04-15 7.52 247
1938 1938-04-19 11.00 1,000
1939 1939-03-20 3.90 330
1940 1940-02-27 4.09 441
1941 1941-03-01 3.73 361
1942 1942-03-31 3.90 400
1943 1943-01-21 11.10 9,000
1944 1944-05-10 1.36 145
1945 1945-02-02 5.00 1,500
1946 1945-12-28 1.99 269
1947 1947-02-12 2.676 296
1948 1948-01-07 2.50 201
1949 1949-04-12 2.57 209
1950 1950-03-19 3.17 262
1951 1951-02-07 3.98 470
1952 1952-04-06 5.55 955
1953 1953-05-29 2.81 174
1954 1954-03-09 2.71 177
1955 1955-03-07 2.27 87.0
1956 1956-01-15 5.49 1,200
1957 1957-02-25 4.21 684
1958 1958-02-25 7.30 1,940
1959 1959-04-04 1.92 71.0
1960 1960-03-07 3.01 265
1961 1961-08-06 4.44 780
1962 1962-03-27 4.50 808
1963 1963-01-31 7.40 3,770
1964 1964-03-31 2.17 184
1965 1964-12-24 3.90 880
1966 1966-04-02 1.77 84.0
1967 1967-01-29 3.05 560
1968 1968-02-23 2.09 207
1969 1969-01-21 4.97 1,560
1970 1970-01-22 3.73 840
1971 1971-01-18 3.20 656
1972 1972-03-03 3.23 632
1973 1973-01-16 4.73 1,380
1974 1974-01-15 3.76 880
1975 1975-07-11 6.10 2,430
1976 1976-03-17 1.92 150
1977 1977-06-10 2.17 203
1978 1978-04-01 2.70 360
1979 1979-03-07 2.98 445
1980 1980-01-13 6.22 2,580
1981 1981-02-14 1.82 152
1982 1982-02-16 4.78 1,390
1983 1983-03-13 4.86 1,500
1984 1984-05-15 4.35 1,130
1985 1985-04-02 2.21 193
1986 1986-02-17 8.80 4,350
1987 1987-05-26 1.48 118
1988 1988-05-17 0.81 28.0
1989 1989-03-08 4.23 1,120
1990 1990-02-26 2.17 264
1991 1991-03-04 2.26 288
1992 1992-02-20 1.37 87.0
1993 1993-03-17 6.00R 2,060R
1994 1994-05-13 1.26 64.0
1995 1995-05-06 4.42 1,150
1996 1996-03-10 2.72 431
1997 1997-01-02 6.72 2,540
1998 1998-05-13 3.41 601
1999 1999-03-01 3.15 527
2000 2000-04-05 1.69 134
2001 2001-04-28 1.52 64.0
2002 2002-03-06 2.56 329
2003 2003-05-30 1.69 132
2004 2004-03-19 3.05 395
2005 2005-05-16 3.37 583
2006 2005-12-31 7.81 1,790
2007 2007-03-13 2.596 41.0
2008 2008-05-19 3.81 196
2009 2009-05-06 3.16 97.0
2010 2010-06-05 3.49 142
2011 2011-04-18 6.41 1,030
2012 2012-04-26 3.13 98.0
2013 2012-12-05 3.08 89.0
2014 2014-02-13 3.02 83.0
2015 2015-02-09 3.16 97.0
2016 2016-03-14 4.20 272
2017 2017-02-09 9.49 2,320
2018 2018-03-22 4.43 366
2019 2019-02-27 5.65 646
2020 2020-05-01 2.54 80.8
?
  Peak Gage-Height Qualification Codes.
?
  Peak Streamflow Qualification Codes.